sensor_id;sensor_type;location;lat;lon;timestamp;temperature;humidity
8858;DHT22;4465;50.904;4.696;2023-03-14T00:01:19;11.70;99.90
8858;DHT22;4465;50.904;4.696;2023-03-14T00:03:48;11.70;99.90
8858;DHT22;4465;50.904;4.696;2023-03-14T00:06:15;11.60;99.90
8858;DHT22;4465;50.904;4.696;2023-03-14T00:08:41;11.60;99.90
8858;DHT22;4465;50.904;4.696;2023-03-14T00:11:17;11.60;99.90
8858;DHT22;4465;50.904;4.696;2023-03-14T00:13:43;11.60;99.90
8858;DHT22;4465;50.904;4.696;2023-03-14T00:16:12;11.60;99.90
8858;DHT22;4465;50.904;4.696;2023-03-14T00:18:38;11.60;99.90
8858;DHT22;4465;50.904;4.696;2023-03-14T00:21:04;11.70;99.90
8858;DHT22;4465;50.904;4.696;2023-03-14T00:23:30;11.70;99.90
8858;DHT22;4465;50.904;4.696;2023-03-14T00:26:00;11.70;99.90
8858;DHT22;4465;50.904;4.696;2023-03-14T00:28:26;11.70;99.90
8858;DHT22;4465;50.904;4.696;2023-03-14T00:30:52;11.70;99.90
8858;DHT22;4465;50.904;4.696;2023-03-14T00:33:21;11.70;99.90
8858;DHT22;4465;50.904;4.696;2023-03-14T00:35:53;11.70;99.90
8858;DHT22;4465;50.904;4.696;2023-03-14T00:38:21;11.70;99.90
8858;DHT22;4465;50.904;4.696;2023-03-14T00:40:48;11.70;99.90
8858;DHT22;4465;50.904;4.696;2023-03-14T00:43:16;11.70;99.90
8858;DHT22;4465;50.904;4.696;2023-03-14T00:45:42;11.70;99.90
8858;DHT22;4465;50.904;4.696;2023-03-14T00:48:08;11.70;99.90
8858;DHT22;4465;50.904;4.696;2023-03-14T00:50:36;11.60;99.90
8858;DHT22;4465;50.904;4.696;2023-03-14T00:53:04;11.60;99.90
8858;DHT22;4465;50.904;4.696;2023-03-14T00:55:30;11.60;99.90
8858;DHT22;4465;50.904;4.696;2023-03-14T00:57:55;11.60;99.90
8858;DHT22;4465;50.904;4.696;2023-03-14T01:00:24;11.60;99.90
8858;DHT22;4465;50.904;4.696;2023-03-14T01:02:50;11.60;99.90
8858;DHT22;4465;50.904;4.696;2023-03-14T01:05:15;11.60;99.90
8858;DHT22;4465;50.904;4.696;2023-03-14T01:07:43;11.60;99.90
8858;DHT22;4465;50.904;4.696;2023-03-14T01:10:09;11.60;99.90
8858;DHT22;4465;50.904;4.696;2023-03-14T01:12:38;11.60;99.90
8858;DHT22;4465;50.904;4.696;2023-03-14T01:15:04;11.60;99.90
8858;DHT22;4465;50.904;4.696;2023-03-14T01:17:30;11.60;99.90
8858;DHT22;4465;50.904;4.696;2023-03-14T01:19:56;11.60;99.90
8858;DHT22;4465;50.904;4.696;2023-03-14T01:22:22;11.50;99.90
8858;DHT22;4465;50.904;4.696;2023-03-14T01:24:50;11.50;99.90
8858;DHT22;4465;50.904;4.696;2023-03-14T01:27:15;11.50;99.90
8858;DHT22;4465;50.904;4.696;2023-03-14T01:29:41;11.50;99.90
8858;DHT22;4465;50.904;4.696;2023-03-14T01:32:07;11.50;99.90
8858;DHT22;4465;50.904;4.696;2023-03-14T01:34:33;11.50;99.90
8858;DHT22;4465;50.904;4.696;2023-03-14T01:36:58;11.50;99.90
8858;DHT22;4465;50.904;4.696;2023-03-14T01:39:24;11.50;99.90
8858;DHT22;4465;50.904;4.696;2023-03-14T01:41:50;11.40;99.90
8858;DHT22;4465;50.904;4.696;2023-03-14T01:44:16;11.40;99.90
8858;DHT22;4465;50.904;4.696;2023-03-14T01:46:44;11.40;99.90
8858;DHT22;4465;50.904;4.696;2023-03-14T01:49:26;11.40;99.90
8858;DHT22;4465;50.904;4.696;2023-03-14T01:54:30;11.30;99.90
8858;DHT22;4465;50.904;4.696;2023-03-14T01:56:58;11.30;99.90
8858;DHT22;4465;50.904;4.696;2023-03-14T01:59:25;11.30;99.90
8858;DHT22;4465;50.904;4.696;2023-03-14T02:01:51;11.20;99.90
8858;DHT22;4465;50.904;4.696;2023-03-14T02:04:17;11.20;99.90
8858;DHT22;4465;50.904;4.696;2023-03-14T02:06:48;11.20;99.90
8858;DHT22;4465;50.904;4.696;2023-03-14T02:09:15;11.10;99.90
8858;DHT22;4465;50.904;4.696;2023-03-14T02:11:41;11.10;99.90
8858;DHT22;4465;50.904;4.696;2023-03-14T02:14:13;11.10;99.90
8858;DHT22;4465;50.904;4.696;2023-03-14T02:16:39;11.10;99.90
8858;DHT22;4465;50.904;4.696;2023-03-14T02:19:07;11.00;99.90
8858;DHT22;4465;50.904;4.696;2023-03-14T02:21:40;11.00;99.90
8858;DHT22;4465;50.904;4.696;2023-03-14T02:29:27;10.70;99.90
8858;DHT22;4465;50.904;4.696;2023-03-14T02:31:53;10.60;99.90
8858;DHT22;4465;50.904;4.696;2023-03-14T02:34:19;10.50;99.90
8858;DHT22;4465;50.904;4.696;2023-03-14T02:36:45;10.40;99.90
8858;DHT22;4465;50.904;4.696;2023-03-14T02:39:30;10.40;99.90
8858;DHT22;4465;50.904;4.696;2023-03-14T02:41:58;10.40;99.90
8858;DHT22;4465;50.904;4.696;2023-03-14T02:44:24;10.30;99.90
8858;DHT22;4465;50.904;4.696;2023-03-14T02:46:50;10.20;99.90
8858;DHT22;4465;50.904;4.696;2023-03-14T02:49:16;10.20;99.90
8858;DHT22;4465;50.904;4.696;2023-03-14T02:51:43;10.10;99.90
8858;DHT22;4465;50.904;4.696;2023-03-14T02:54:10;10.10;99.90
8858;DHT22;4465;50.904;4.696;2023-03-14T02:56:36;10.00;99.90
8858;DHT22;4465;50.904;4.696;2023-03-14T02:59:04;10.00;99.90
8858;DHT22;4465;50.904;4.696;2023-03-14T03:01:34;10.00;99.90
8858;DHT22;4465;50.904;4.696;2023-03-14T03:04:00;10.00;99.90
8858;DHT22;4465;50.904;4.696;2023-03-14T03:06:25;10.00;99.90
8858;DHT22;4465;50.904;4.696;2023-03-14T03:08:51;9.90;99.90
8858;DHT22;4465;50.904;4.696;2023-03-14T03:11:17;9.90;99.90
8858;DHT22;4465;50.904;4.696;2023-03-14T03:13:43;10.00;99.90
8858;DHT22;4465;50.904;4.696;2023-03-14T03:16:09;9.90;99.90
8858;DHT22;4465;50.904;4.696;2023-03-14T03:18:35;10.00;99.90
8858;DHT22;4465;50.904;4.696;2023-03-14T03:21:01;10.00;99.90
8858;DHT22;4465;50.904;4.696;2023-03-14T03:23:29;9.90;99.90
8858;DHT22;4465;50.904;4.696;2023-03-14T03:25:55;9.90;99.90
8858;DHT22;4465;50.904;4.696;2023-03-14T03:28:21;10.00;99.90
8858;DHT22;4465;50.904;4.696;2023-03-14T03:30:47;10.10;99.90
8858;DHT22;4465;50.904;4.696;2023-03-14T03:33:13;10.00;99.90
8858;DHT22;4465;50.904;4.696;2023-03-14T03:35:46;10.00;99.90
8858;DHT22;4465;50.904;4.696;2023-03-14T03:38:12;10.00;99.90
8858;DHT22;4465;50.904;4.696;2023-03-14T03:40:38;10.00;99.90
8858;DHT22;4465;50.904;4.696;2023-03-14T03:43:03;10.00;99.90
8858;DHT22;4465;50.904;4.696;2023-03-14T03:45:29;10.00;99.90
8858;DHT22;4465;50.904;4.696;2023-03-14T03:47:57;10.00;99.90
8858;DHT22;4465;50.904;4.696;2023-03-14T03:50:23;10.10;99.90
8858;DHT22;4465;50.904;4.696;2023-03-14T03:52:51;10.10;99.90
8858;DHT22;4465;50.904;4.696;2023-03-14T03:55:17;10.10;99.90
8858;DHT22;4465;50.904;4.696;2023-03-14T03:57:43;10.00;99.90
8858;DHT22;4465;50.904;4.696;2023-03-14T04:00:09;10.00;99.90
8858;DHT22;4465;50.904;4.696;2023-03-14T04:02:37;10.10;99.90
8858;DHT22;4465;50.904;4.696;2023-03-14T04:05:03;10.20;99.90
8858;DHT22;4465;50.904;4.696;2023-03-14T04:07:31;10.20;99.90
8858;DHT22;4465;50.904;4.696;2023-03-14T04:09:57;10.20;99.90
8858;DHT22;4465;50.904;4.696;2023-03-14T04:12:25;10.20;99.90
8858;DHT22;4465;50.904;4.696;2023-03-14T04:14:53;10.20;99.90
8858;DHT22;4465;50.904;4.696;2023-03-14T04:17:19;10.10;99.90
8858;DHT22;4465;50.904;4.696;2023-03-14T04:19:44;10.10;99.90
8858;DHT22;4465;50.904;4.696;2023-03-14T04:22:10;10.10;99.90
8858;DHT22;4465;50.904;4.696;2023-03-14T04:24:36;10.10;99.90
8858;DHT22;4465;50.904;4.696;2023-03-14T04:27:02;10.10;99.90
8858;DHT22;4465;50.904;4.696;2023-03-14T04:29:28;10.20;99.90
8858;DHT22;4465;50.904;4.696;2023-03-14T04:31:53;10.20;99.90
8858;DHT22;4465;50.904;4.696;2023-03-14T04:34:21;10.20;99.90
8858;DHT22;4465;50.904;4.696;2023-03-14T04:36:47;10.20;99.90
8858;DHT22;4465;50.904;4.696;2023-03-14T04:39:15;10.10;99.90
8858;DHT22;4465;50.904;4.696;2023-03-14T04:41:41;10.10;99.90
8858;DHT22;4465;50.904;4.696;2023-03-14T04:44:09;10.20;99.90
8858;DHT22;4465;50.904;4.696;2023-03-14T04:46:35;10.20;99.90
8858;DHT22;4465;50.904;4.696;2023-03-14T04:49:03;10.30;99.90
8858;DHT22;4465;50.904;4.696;2023-03-14T04:51:29;10.30;99.90
8858;DHT22;4465;50.904;4.696;2023-03-14T04:53:55;10.20;99.90
8858;DHT22;4465;50.904;4.696;2023-03-14T04:56:21;10.20;99.90
8858;DHT22;4465;50.904;4.696;2023-03-14T04:58:46;10.20;99.90
8858;DHT22;4465;50.904;4.696;2023-03-14T05:01:12;10.30;99.90
8858;DHT22;4465;50.904;4.696;2023-03-14T05:03:38;10.30;99.90
8858;DHT22;4465;50.904;4.696;2023-03-14T05:06:05;10.30;99.90
8858;DHT22;4465;50.904;4.696;2023-03-14T05:08:35;10.30;99.90
8858;DHT22;4465;50.904;4.696;2023-03-14T05:11:03;10.30;99.90
8858;DHT22;4465;50.904;4.696;2023-03-14T05:13:29;10.30;99.90
8858;DHT22;4465;50.904;4.696;2023-03-14T05:16:02;10.30;99.90
8858;DHT22;4465;50.904;4.696;2023-03-14T05:18:33;10.40;99.90
8858;DHT22;4465;50.904;4.696;2023-03-14T05:20:59;10.30;99.90
8858;DHT22;4465;50.904;4.696;2023-03-14T05:23:25;10.30;99.90
8858;DHT22;4465;50.904;4.696;2023-03-14T05:25:50;10.30;99.90
8858;DHT22;4465;50.904;4.696;2023-03-14T05:28:16;10.30;99.90
8858;DHT22;4465;50.904;4.696;2023-03-14T05:30:42;10.30;99.90
8858;DHT22;4465;50.904;4.696;2023-03-14T05:33:08;10.30;99.90
8858;DHT22;4465;50.904;4.696;2023-03-14T05:35:33;10.30;99.90
8858;DHT22;4465;50.904;4.696;2023-03-14T05:37:59;10.30;99.90
8858;DHT22;4465;50.904;4.696;2023-03-14T05:40:25;10.30;99.90
8858;DHT22;4465;50.904;4.696;2023-03-14T05:42:51;10.40;99.90
8858;DHT22;4465;50.904;4.696;2023-03-14T05:45:17;10.40;99.90
8858;DHT22;4465;50.904;4.696;2023-03-14T05:47:43;10.40;99.90
8858;DHT22;4465;50.904;4.696;2023-03-14T05:50:09;10.40;99.90
8858;DHT22;4465;50.904;4.696;2023-03-14T05:52:38;10.40;99.90
8858;DHT22;4465;50.904;4.696;2023-03-14T05:55:03;10.40;99.90
8858;DHT22;4465;50.904;4.696;2023-03-14T05:57:29;10.40;99.90
8858;DHT22;4465;50.904;4.696;2023-03-14T05:59:55;10.40;99.90
8858;DHT22;4465;50.904;4.696;2023-03-14T06:02:21;10.40;99.90
8858;DHT22;4465;50.904;4.696;2023-03-14T06:04:49;10.40;99.90
8858;DHT22;4465;50.904;4.696;2023-03-14T06:07:15;10.40;99.90
8858;DHT22;4465;50.904;4.696;2023-03-14T06:09:41;10.40;99.90
8858;DHT22;4465;50.904;4.696;2023-03-14T06:12:06;10.50;99.90
8858;DHT22;4465;50.904;4.696;2023-03-14T06:14:32;10.40;99.90
8858;DHT22;4465;50.904;4.696;2023-03-14T06:16:58;10.50;99.90
8858;DHT22;4465;50.904;4.696;2023-03-14T06:19:27;10.50;99.90
8858;DHT22;4465;50.904;4.696;2023-03-14T06:21:53;10.50;99.90
8858;DHT22;4465;50.904;4.696;2023-03-14T06:24:18;10.50;99.90
8858;DHT22;4465;50.904;4.696;2023-03-14T06:26:47;10.40;99.90
8858;DHT22;4465;50.904;4.696;2023-03-14T06:29:15;10.50;99.90
8858;DHT22;4465;50.904;4.696;2023-03-14T06:31:40;10.50;99.90
8858;DHT22;4465;50.904;4.696;2023-03-14T06:34:14;10.50;99.90
8858;DHT22;4465;50.904;4.696;2023-03-14T06:36:40;10.50;99.90
8858;DHT22;4465;50.904;4.696;2023-03-14T06:39:08;10.50;99.90
8858;DHT22;4465;50.904;4.696;2023-03-14T06:41:34;10.60;99.90
8858;DHT22;4465;50.904;4.696;2023-03-14T06:44:00;10.60;99.90
8858;DHT22;4465;50.904;4.696;2023-03-14T06:46:28;10.60;99.90
8858;DHT22;4465;50.904;4.696;2023-03-14T06:48:56;10.60;99.90
8858;DHT22;4465;50.904;4.696;2023-03-14T06:51:22;10.60;99.90
8858;DHT22;4465;50.904;4.696;2023-03-14T06:53:48;10.60;99.90
8858;DHT22;4465;50.904;4.696;2023-03-14T06:56:14;10.60;99.90
8858;DHT22;4465;50.904;4.696;2023-03-14T06:58:40;10.60;99.90
8858;DHT22;4465;50.904;4.696;2023-03-14T07:01:06;10.60;99.90
8858;DHT22;4465;50.904;4.696;2023-03-14T07:03:35;10.60;99.90
8858;DHT22;4465;50.904;4.696;2023-03-14T07:06:03;10.50;99.90
8858;DHT22;4465;50.904;4.696;2023-03-14T07:08:29;10.50;99.90
8858;DHT22;4465;50.904;4.696;2023-03-14T07:10:56;10.50;99.90
8858;DHT22;4465;50.904;4.696;2023-03-14T07:13:24;10.40;99.90
8858;DHT22;4465;50.904;4.696;2023-03-14T07:15:50;10.20;99.90
8858;DHT22;4465;50.904;4.696;2023-03-14T07:18:15;10.00;99.90
8858;DHT22;4465;50.904;4.696;2023-03-14T07:20:41;9.90;99.90
8858;DHT22;4465;50.904;4.696;2023-03-14T07:23:09;9.70;99.90
8858;DHT22;4465;50.904;4.696;2023-03-14T07:25:37;9.50;99.90
8858;DHT22;4465;50.904;4.696;2023-03-14T07:28:03;9.30;99.90
8858;DHT22;4465;50.904;4.696;2023-03-14T07:30:29;9.20;99.90
8858;DHT22;4465;50.904;4.696;2023-03-14T07:32:55;9.00;99.90
8858;DHT22;4465;50.904;4.696;2023-03-14T07:35:20;8.90;99.90
8858;DHT22;4465;50.904;4.696;2023-03-14T07:37:46;8.80;99.90
8858;DHT22;4465;50.904;4.696;2023-03-14T07:40:14;8.70;99.90
8858;DHT22;4465;50.904;4.696;2023-03-14T07:42:41;8.60;99.90
8858;DHT22;4465;50.904;4.696;2023-03-14T07:45:12;8.50;99.90
8858;DHT22;4465;50.904;4.696;2023-03-14T07:47:40;8.40;99.90
8858;DHT22;4465;50.904;4.696;2023-03-14T07:50:05;8.40;99.90
8858;DHT22;4465;50.904;4.696;2023-03-14T07:52:31;8.30;99.90
8858;DHT22;4465;50.904;4.696;2023-03-14T07:54:59;8.30;99.90
8858;DHT22;4465;50.904;4.696;2023-03-14T07:57:25;8.20;99.90
8858;DHT22;4465;50.904;4.696;2023-03-14T07:59:53;8.10;99.90
8858;DHT22;4465;50.904;4.696;2023-03-14T08:02:21;8.10;99.90
8858;DHT22;4465;50.904;4.696;2023-03-14T08:04:49;8.00;99.90
8858;DHT22;4465;50.904;4.696;2023-03-14T08:07:15;8.00;99.90
8858;DHT22;4465;50.904;4.696;2023-03-14T08:09:41;8.00;99.90
8858;DHT22;4465;50.904;4.696;2023-03-14T08:12:07;8.00;99.90
8858;DHT22;4465;50.904;4.696;2023-03-14T08:14:35;7.90;99.90
8858;DHT22;4465;50.904;4.696;2023-03-14T08:17:01;8.00;99.90
8858;DHT22;4465;50.904;4.696;2023-03-14T08:19:27;8.00;99.90
8858;DHT22;4465;50.904;4.696;2023-03-14T08:21:57;8.00;99.90
8858;DHT22;4465;50.904;4.696;2023-03-14T08:24:28;8.00;99.90
8858;DHT22;4465;50.904;4.696;2023-03-14T08:26:53;8.00;99.90
8858;DHT22;4465;50.904;4.696;2023-03-14T08:29:19;8.10;99.90
8858;DHT22;4465;50.904;4.696;2023-03-14T08:31:45;8.10;99.90
8858;DHT22;4465;50.904;4.696;2023-03-14T08:34:11;8.10;99.90
8858;DHT22;4465;50.904;4.696;2023-03-14T08:36:37;8.10;99.90
8858;DHT22;4465;50.904;4.696;2023-03-14T08:39:03;8.10;99.90
8858;DHT22;4465;50.904;4.696;2023-03-14T08:41:29;8.10;99.90
8858;DHT22;4465;50.904;4.696;2023-03-14T08:43:55;8.10;99.90
8858;DHT22;4465;50.904;4.696;2023-03-14T08:46:21;8.10;99.90
8858;DHT22;4465;50.904;4.696;2023-03-14T08:48:46;8.10;99.90
8858;DHT22;4465;50.904;4.696;2023-03-14T08:51:13;8.00;99.90
8858;DHT22;4465;50.904;4.696;2023-03-14T08:53:39;8.00;99.90
8858;DHT22;4465;50.904;4.696;2023-03-14T08:56:05;8.00;99.90
8858;DHT22;4465;50.904;4.696;2023-03-14T08:58:36;8.00;99.90
8858;DHT22;4465;50.904;4.696;2023-03-14T09:01:04;7.90;99.90
8858;DHT22;4465;50.904;4.696;2023-03-14T09:03:30;7.90;99.90
8858;DHT22;4465;50.904;4.696;2023-03-14T09:06:06;7.90;99.90
8858;DHT22;4465;50.904;4.696;2023-03-14T09:08:37;7.90;99.90
8858;DHT22;4465;50.904;4.696;2023-03-14T09:11:06;7.80;99.90
8858;DHT22;4465;50.904;4.696;2023-03-14T09:13:31;7.80;99.90
8858;DHT22;4465;50.904;4.696;2023-03-14T09:16:01;7.80;99.90
8858;DHT22;4465;50.904;4.696;2023-03-14T09:18:27;7.80;99.90
8858;DHT22;4465;50.904;4.696;2023-03-14T09:20:52;7.80;99.90
8858;DHT22;4465;50.904;4.696;2023-03-14T09:23:18;7.90;99.90
8858;DHT22;4465;50.904;4.696;2023-03-14T09:25:44;7.90;99.90
8858;DHT22;4465;50.904;4.696;2023-03-14T09:28:12;8.00;99.90
8858;DHT22;4465;50.904;4.696;2023-03-14T09:30:38;8.00;99.90
8858;DHT22;4465;50.904;4.696;2023-03-14T09:33:07;8.00;99.90
8858;DHT22;4465;50.904;4.696;2023-03-14T09:35:35;8.00;99.90
8858;DHT22;4465;50.904;4.696;2023-03-14T09:38:01;7.90;99.90
8858;DHT22;4465;50.904;4.696;2023-03-14T09:40:30;7.80;99.90
8858;DHT22;4465;50.904;4.696;2023-03-14T09:42:57;7.70;99.90
8858;DHT22;4465;50.904;4.696;2023-03-14T09:45:31;7.60;99.90
8858;DHT22;4465;50.904;4.696;2023-03-14T09:47:58;7.60;99.90
8858;DHT22;4465;50.904;4.696;2023-03-14T09:50:25;7.50;99.90
8858;DHT22;4465;50.904;4.696;2023-03-14T09:52:52;7.50;99.90
8858;DHT22;4465;50.904;4.696;2023-03-14T09:55:24;7.50;99.90
8858;DHT22;4465;50.904;4.696;2023-03-14T09:57:50;7.50;99.90
8858;DHT22;4465;50.904;4.696;2023-03-14T10:00:21;7.50;99.90
8858;DHT22;4465;50.904;4.696;2023-03-14T10:02:59;7.50;99.90
8858;DHT22;4465;50.904;4.696;2023-03-14T10:05:27;7.60;99.90
8858;DHT22;4465;50.904;4.696;2023-03-14T10:07:55;7.70;99.90
8858;DHT22;4465;50.904;4.696;2023-03-14T10:10:24;7.70;99.90
8858;DHT22;4465;50.904;4.696;2023-03-14T10:12:56;7.80;99.90
8858;DHT22;4465;50.904;4.696;2023-03-14T10:15:26;7.80;99.90
8858;DHT22;4465;50.904;4.696;2023-03-14T10:17:55;7.80;99.90
8858;DHT22;4465;50.904;4.696;2023-03-14T10:23:02;7.70;99.90
8858;DHT22;4465;50.904;4.696;2023-03-14T10:25:29;7.70;99.90
8858;DHT22;4465;50.904;4.696;2023-03-14T10:27:58;7.70;99.90
8858;DHT22;4465;50.904;4.696;2023-03-14T10:30:43;7.60;99.90
8858;DHT22;4465;50.904;4.696;2023-03-14T10:33:31;7.60;99.90
8858;DHT22;4465;50.904;4.696;2023-03-14T10:38:25;7.40;99.90
8858;DHT22;4465;50.904;4.696;2023-03-14T10:40:52;7.20;99.90
8858;DHT22;4465;50.904;4.696;2023-03-14T10:43:19;7.20;99.90
8858;DHT22;4465;50.904;4.696;2023-03-14T10:45:54;7.20;99.90
8858;DHT22;4465;50.904;4.696;2023-03-14T10:48:25;7.10;99.90
8858;DHT22;4465;50.904;4.696;2023-03-14T10:50:56;7.00;99.90
8858;DHT22;4465;50.904;4.696;2023-03-14T10:53:22;7.00;99.90
8858;DHT22;4465;50.904;4.696;2023-03-14T10:55:48;7.10;99.90
8858;DHT22;4465;50.904;4.696;2023-03-14T10:58:29;7.00;99.90
8858;DHT22;4465;50.904;4.696;2023-03-14T11:01:05;6.90;99.90
8858;DHT22;4465;50.904;4.696;2023-03-14T11:03:35;6.90;99.90
8858;DHT22;4465;50.904;4.696;2023-03-14T11:08:36;6.90;99.90
8858;DHT22;4465;50.904;4.696;2023-03-14T11:11:10;6.90;99.90
8858;DHT22;4465;50.904;4.696;2023-03-14T11:13:39;6.90;99.90
8858;DHT22;4465;50.904;4.696;2023-03-14T11:19:03;6.70;99.90
8858;DHT22;4465;50.904;4.696;2023-03-14T11:21:54;6.70;99.90
8858;DHT22;4465;50.904;4.696;2023-03-14T11:29:19;6.50;99.90
8858;DHT22;4465;50.904;4.696;2023-03-14T11:31:46;6.50;99.90
8858;DHT22;4465;50.904;4.696;2023-03-14T11:36:46;6.40;99.90
8858;DHT22;4465;50.904;4.696;2023-03-14T11:39:19;6.50;99.90
8858;DHT22;4465;50.904;4.696;2023-03-14T11:41:52;6.50;99.90
8858;DHT22;4465;50.904;4.696;2023-03-14T11:44:19;6.50;99.90
8858;DHT22;4465;50.904;4.696;2023-03-14T11:47:05;6.60;99.90
8858;DHT22;4465;50.904;4.696;2023-03-14T11:52:20;6.60;99.90
8858;DHT22;4465;50.904;4.696;2023-03-14T11:57:19;6.80;99.90
8858;DHT22;4465;50.904;4.696;2023-03-14T12:02:31;7.00;99.90
8858;DHT22;4465;50.904;4.696;2023-03-14T12:10:27;7.30;99.90
8858;DHT22;4465;50.904;4.696;2023-03-14T12:12:52;7.30;99.90
8858;DHT22;4465;50.904;4.696;2023-03-14T12:15:19;7.30;99.90
8858;DHT22;4465;50.904;4.696;2023-03-14T12:17:46;7.30;99.90
8858;DHT22;4465;50.904;4.696;2023-03-14T12:22:45;7.40;99.90
8858;DHT22;4465;50.904;4.696;2023-03-14T12:25:15;7.40;99.90
8858;DHT22;4465;50.904;4.696;2023-03-14T12:27:47;7.40;99.90
8858;DHT22;4465;50.904;4.696;2023-03-14T12:30:29;7.40;99.90
8858;DHT22;4465;50.904;4.696;2023-03-14T12:35:46;7.40;99.90
8858;DHT22;4465;50.904;4.696;2023-03-14T12:40:50;7.10;99.90
8858;DHT22;4465;50.904;4.696;2023-03-14T12:43:32;7.00;99.90
8858;DHT22;4465;50.904;4.696;2023-03-14T12:51:17;6.80;99.90
8858;DHT22;4465;50.904;4.696;2023-03-14T12:56:32;6.80;99.90
8858;DHT22;4465;50.904;4.696;2023-03-14T13:01:47;6.70;99.90
8858;DHT22;4465;50.904;4.696;2023-03-14T13:04:16;6.70;99.90
8858;DHT22;4465;50.904;4.696;2023-03-14T13:06:46;6.70;99.90
8858;DHT22;4465;50.904;4.696;2023-03-14T13:12:09;6.80;99.90
8858;DHT22;4465;50.904;4.696;2023-03-14T13:14:36;6.80;99.90
8858;DHT22;4465;50.904;4.696;2023-03-14T13:17:09;6.80;99.90
8858;DHT22;4465;50.904;4.696;2023-03-14T13:19:37;6.80;99.90
8858;DHT22;4465;50.904;4.696;2023-03-14T13:22:05;6.90;99.90
8858;DHT22;4465;50.904;4.696;2023-03-14T13:24:34;6.90;99.90
8858;DHT22;4465;50.904;4.696;2023-03-14T13:27:00;6.90;99.90
8858;DHT22;4465;50.904;4.696;2023-03-14T13:29:32;6.90;99.90
8858;DHT22;4465;50.904;4.696;2023-03-14T13:31:59;6.80;99.90
8858;DHT22;4465;50.904;4.696;2023-03-14T13:34:29;6.80;99.90
8858;DHT22;4465;50.904;4.696;2023-03-14T13:36:55;6.80;99.90
8858;DHT22;4465;50.904;4.696;2023-03-14T13:39:22;6.80;99.90
8858;DHT22;4465;50.904;4.696;2023-03-14T13:41:52;6.70;99.90
8858;DHT22;4465;50.904;4.696;2023-03-14T13:46:50;6.40;99.90
8858;DHT22;4465;50.904;4.696;2023-03-14T13:49:25;6.30;99.90
8858;DHT22;4465;50.904;4.696;2023-03-14T13:51:51;6.20;99.90
8858;DHT22;4465;50.904;4.696;2023-03-14T13:54:18;6.20;99.90
8858;DHT22;4465;50.904;4.696;2023-03-14T13:56:45;6.10;99.90
8858;DHT22;4465;50.904;4.696;2023-03-14T14:01:54;6.10;99.90
8858;DHT22;4465;50.904;4.696;2023-03-14T14:04:20;6.10;99.90
8858;DHT22;4465;50.904;4.696;2023-03-14T14:06:49;6.10;99.90
8858;DHT22;4465;50.904;4.696;2023-03-14T14:11:42;6.20;99.90
8858;DHT22;4465;50.904;4.696;2023-03-14T14:14:13;6.20;99.90
8858;DHT22;4465;50.904;4.696;2023-03-14T14:16:41;6.30;99.90
8858;DHT22;4465;50.904;4.696;2023-03-14T14:19:07;6.40;99.90
8858;DHT22;4465;50.904;4.696;2023-03-14T14:21:33;6.40;99.90
8858;DHT22;4465;50.904;4.696;2023-03-14T14:23:59;6.40;99.90
8858;DHT22;4465;50.904;4.696;2023-03-14T14:26:26;6.50;99.90
8858;DHT22;4465;50.904;4.696;2023-03-14T14:28:59;6.60;99.90
8858;DHT22;4465;50.904;4.696;2023-03-14T14:31:25;6.60;99.90
8858;DHT22;4465;50.904;4.696;2023-03-14T14:33:58;6.70;99.90
8858;DHT22;4465;50.904;4.696;2023-03-14T14:36:30;6.80;99.90
8858;DHT22;4465;50.904;4.696;2023-03-14T14:39:00;6.80;99.90
8858;DHT22;4465;50.904;4.696;2023-03-14T14:41:31;6.90;99.90
8858;DHT22;4465;50.904;4.696;2023-03-14T14:44:00;6.90;99.90
8858;DHT22;4465;50.904;4.696;2023-03-14T14:46:30;7.00;99.90
8858;DHT22;4465;50.904;4.696;2023-03-14T14:48:56;7.00;99.90
8858;DHT22;4465;50.904;4.696;2023-03-14T14:51:24;7.10;99.90
8858;DHT22;4465;50.904;4.696;2023-03-14T14:53:59;7.10;99.90
8858;DHT22;4465;50.904;4.696;2023-03-14T14:56:26;7.20;99.90
8858;DHT22;4465;50.904;4.696;2023-03-14T14:58:56;7.20;99.90
8858;DHT22;4465;50.904;4.696;2023-03-14T15:01:23;7.20;99.90
8858;DHT22;4465;50.904;4.696;2023-03-14T15:03:52;7.10;99.90
8858;DHT22;4465;50.904;4.696;2023-03-14T15:06:21;7.00;99.90
8858;DHT22;4465;50.904;4.696;2023-03-14T15:08:47;6.80;99.90
8858;DHT22;4465;50.904;4.696;2023-03-14T15:11:18;6.60;99.90
8858;DHT22;4465;50.904;4.696;2023-03-14T15:13:44;6.50;99.90
8858;DHT22;4465;50.904;4.696;2023-03-14T15:16:10;6.30;99.90
8858;DHT22;4465;50.904;4.696;2023-03-14T15:18:36;6.10;99.90
8858;DHT22;4465;50.904;4.696;2023-03-14T15:21:02;6.10;99.90
8858;DHT22;4465;50.904;4.696;2023-03-14T15:23:28;6.00;99.90
8858;DHT22;4465;50.904;4.696;2023-03-14T15:25:56;5.90;99.90
8858;DHT22;4465;50.904;4.696;2023-03-14T15:28:23;5.90;99.90
8858;DHT22;4465;50.904;4.696;2023-03-14T15:30:50;5.90;99.90
8858;DHT22;4465;50.904;4.696;2023-03-14T15:33:16;5.80;99.90
8858;DHT22;4465;50.904;4.696;2023-03-14T15:35:42;5.80;99.90
8858;DHT22;4465;50.904;4.696;2023-03-14T15:38:09;5.70;99.90
8858;DHT22;4465;50.904;4.696;2023-03-14T15:40:35;5.70;99.90
8858;DHT22;4465;50.904;4.696;2023-03-14T15:43:03;5.70;99.90
8858;DHT22;4465;50.904;4.696;2023-03-14T15:45:29;5.70;99.90
8858;DHT22;4465;50.904;4.696;2023-03-14T15:47:57;5.70;99.90
8858;DHT22;4465;50.904;4.696;2023-03-14T15:50:25;5.70;99.90
8858;DHT22;4465;50.904;4.696;2023-03-14T15:52:51;5.70;99.90
8858;DHT22;4465;50.904;4.696;2023-03-14T15:55:17;5.70;99.90
8858;DHT22;4465;50.904;4.696;2023-03-14T15:57:43;5.70;99.90
8858;DHT22;4465;50.904;4.696;2023-03-14T16:00:16;5.70;99.90
8858;DHT22;4465;50.904;4.696;2023-03-14T16:02:47;5.70;99.90
8858;DHT22;4465;50.904;4.696;2023-03-14T16:05:13;5.80;99.90
8858;DHT22;4465;50.904;4.696;2023-03-14T16:07:39;5.70;99.90
8858;DHT22;4465;50.904;4.696;2023-03-14T16:10:05;5.80;99.90
8858;DHT22;4465;50.904;4.696;2023-03-14T16:12:32;5.70;99.90
8858;DHT22;4465;50.904;4.696;2023-03-14T16:15:00;5.70;99.90
8858;DHT22;4465;50.904;4.696;2023-03-14T16:17:26;5.70;99.90
8858;DHT22;4465;50.904;4.696;2023-03-14T16:19:52;5.70;99.90
8858;DHT22;4465;50.904;4.696;2023-03-14T16:22:18;5.80;99.90
8858;DHT22;4465;50.904;4.696;2023-03-14T16:24:44;5.70;99.90
8858;DHT22;4465;50.904;4.696;2023-03-14T16:27:09;5.70;99.90
8858;DHT22;4465;50.904;4.696;2023-03-14T16:29:35;5.60;99.90
8858;DHT22;4465;50.904;4.696;2023-03-14T16:32:01;5.70;99.90
8858;DHT22;4465;50.904;4.696;2023-03-14T16:34:27;5.60;99.90
8858;DHT22;4465;50.904;4.696;2023-03-14T16:36:53;5.60;99.90
8858;DHT22;4465;50.904;4.696;2023-03-14T16:39:20;5.60;99.90
8858;DHT22;4465;50.904;4.696;2023-03-14T16:41:48;5.60;99.90
8858;DHT22;4465;50.904;4.696;2023-03-14T16:44:14;5.50;99.90
8858;DHT22;4465;50.904;4.696;2023-03-14T16:46:42;5.50;99.90
8858;DHT22;4465;50.904;4.696;2023-03-14T16:49:07;5.50;99.90
8858;DHT22;4465;50.904;4.696;2023-03-14T16:51:33;5.60;99.90
8858;DHT22;4465;50.904;4.696;2023-03-14T16:53:59;5.50;99.90
8858;DHT22;4465;50.904;4.696;2023-03-14T16:56:25;5.40;99.90
8858;DHT22;4465;50.904;4.696;2023-03-14T16:58:51;5.50;99.90
8858;DHT22;4465;50.904;4.696;2023-03-14T17:01:17;5.40;99.90
8858;DHT22;4465;50.904;4.696;2023-03-14T17:03:49;5.40;99.90
8858;DHT22;4465;50.904;4.696;2023-03-14T17:06:19;5.40;99.90
8858;DHT22;4465;50.904;4.696;2023-03-14T17:08:45;5.40;99.90
8858;DHT22;4465;50.904;4.696;2023-03-14T17:11:10;5.40;99.90
8858;DHT22;4465;50.904;4.696;2023-03-14T17:13:36;5.40;99.90
8858;DHT22;4465;50.904;4.696;2023-03-14T17:16:02;5.40;99.90
8858;DHT22;4465;50.904;4.696;2023-03-14T17:18:28;5.30;99.90
8858;DHT22;4465;50.904;4.696;2023-03-14T17:20:55;5.30;99.90